Cameron Village, North Carolina
Current Conditions -  °F | °C
As of 6:51 PM on Sunday 23 Nov 2014 (Local Time) from KRDU Reporting Station
Light Rain Light Rain  
Wind Chill: 57°   Ceiling: 600
Heat Index: 57°   Visibility: 5mi
Dew Point: 54°   Wind: 10mph
Humidity: 89%   Direction: 120°ESE
Pressure: 29.93"   Gusts: 20mph
Location:  35.7907°N, 78.6542°W
Report Text: KRDU 232351Z 12009G17KT 5SM -RA BR OVC006 14/12 A2993 RMK AO2 SLP134 P0003 60007 T01390122 10139 20111 56038 $
Loading
Personal Weather Stations






























Interactive Weather Map New forecast layout! Learn more

10-Day Weather Forecast

Advertisements
Track Severe Weather on mobile